createdAt,value
2022-11-27T00:01:17.834Z,12.07
2022-11-27T00:03:44.703Z,9.57
2022-11-27T00:06:17.756Z,13.63
2022-11-27T00:08:45.476Z,11.02
2022-11-27T00:11:20.355Z,9.30
2022-11-27T00:13:47.713Z,12.48
2022-11-27T00:16:15.251Z,8.95
2022-11-27T00:18:42.305Z,10.30
2022-11-27T00:21:12.549Z,11.27
2022-11-27T00:23:39.423Z,9.40
2022-11-27T00:26:07.093Z,12.73
2022-11-27T00:28:34.235Z,9.33
2022-11-27T00:31:02.909Z,10.65
2022-11-27T00:33:29.737Z,10.75
2022-11-27T00:35:56.345Z,7.03
2022-11-27T00:38:22.995Z,10.30
2022-11-27T00:40:49.647Z,8.05
2022-11-27T00:43:16.747Z,11.48
2022-11-27T00:45:43.229Z,11.02
2022-11-27T00:48:09.711Z,10.93
2022-11-27T00:50:36.271Z,9.93
2022-11-27T00:53:02.754Z,10.10
2022-11-27T00:55:29.338Z,9.60
2022-11-27T00:57:55.852Z,8.35
2022-11-27T01:00:23.049Z,8.70
2022-11-27T01:02:49.664Z,10.57
2022-11-27T01:05:16.429Z,11.45
2022-11-27T01:07:43.045Z,7.45
2022-11-27T01:10:10.093Z,9.97
2022-11-27T01:12:36.645Z,10.43
2022-11-27T01:15:03.637Z,9.60
2022-11-27T01:17:30.231Z,11.00
2022-11-27T01:19:56.733Z,8.87
2022-11-27T01:22:23.308Z,8.90
2022-11-27T01:24:49.830Z,7.95
2022-11-27T01:27:16.409Z,11.48
2022-11-27T01:29:43.079Z,6.45
2022-11-27T01:32:09.615Z,13.65
2022-11-27T01:34:36.146Z,8.73
2022-11-27T01:37:02.710Z,12.05
2022-11-27T01:39:29.206Z,7.85
2022-11-27T01:41:55.739Z,14.25
2022-11-27T01:44:25.290Z,12.55
2022-11-27T01:46:56.916Z,14.07
2022-11-27T01:49:23.543Z,9.95
2022-11-27T01:51:56.256Z,12.40
2022-11-27T01:54:26.146Z,9.27
2022-11-27T01:56:57.555Z,11.93
2022-11-27T01:59:24.896Z,12.00
2022-11-27T02:01:51.506Z,7.67
2022-11-27T02:04:19.370Z,9.00
2022-11-27T02:06:45.999Z,9.65
2022-11-27T02:09:12.778Z,14.75
2022-11-27T02:11:54.258Z,8.97
2022-11-27T02:14:53.396Z,11.80
2022-11-27T02:17:37.316Z,9.75
2022-11-27T02:20:19.258Z,10.98
2022-11-27T02:23:05.958Z,18.03
2022-11-27T02:25:50.727Z,13.88
2022-11-27T02:28:38.541Z,12.98
2022-11-27T02:31:14.262Z,14.23
2022-11-27T02:33:45.753Z,13.40
2022-11-27T02:36:19.040Z,14.13
2022-11-27T02:39:00.031Z,12.38
2022-11-27T02:41:33.633Z,9.43
2022-11-27T02:44:00.775Z,17.42
2022-11-27T02:46:28.819Z,12.55
2022-11-27T02:48:58.575Z,14.50
2022-11-27T02:51:38.993Z,11.73
2022-11-27T02:54:09.612Z,15.48
2022-11-27T02:56:38.658Z,18.23
2022-11-27T02:59:10.171Z,12.73
2022-11-27T03:01:42.905Z,9.83
2022-11-27T03:04:17.167Z,12.77
2022-11-27T03:06:48.229Z,14.80
2022-11-27T03:09:27.661Z,17.73
2022-11-27T03:11:54.618Z,13.40
2022-11-27T03:14:24.424Z,11.95
2022-11-27T03:17:03.599Z,14.18
2022-11-27T03:20:02.347Z,12.88
2022-11-27T03:22:31.543Z,13.73
2022-11-27T03:24:58.980Z,15.57
2022-11-27T03:27:37.072Z,11.60
2022-11-27T03:30:06.841Z,17.38
2022-11-27T03:32:34.064Z,14.83
2022-11-27T03:35:00.982Z,15.55
2022-11-27T03:37:27.795Z,19.70
2022-11-27T03:39:54.632Z,19.98
2022-11-27T03:42:30.923Z,11.52
2022-11-27T03:45:24.838Z,18.33
2022-11-27T03:48:15.753Z,15.82
2022-11-27T03:50:57.680Z,11.73
2022-11-27T03:53:46.068Z,14.68
2022-11-27T03:56:24.997Z,13.45
2022-11-27T03:58:55.989Z,14.10
2022-11-27T04:01:25.544Z,15.80
2022-11-27T04:03:52.383Z,16.98
2022-11-27T04:06:18.975Z,17.55
2022-11-27T04:08:48.917Z,20.57
2022-11-27T04:11:15.895Z,13.80
2022-11-27T04:13:42.397Z,14.55
2022-11-27T04:16:09.273Z,18.58
2022-11-27T04:18:35.921Z,14.10
2022-11-27T04:21:02.607Z,17.27
2022-11-27T04:23:29.085Z,15.15
2022-11-27T04:25:55.642Z,16.17
2022-11-27T04:28:22.246Z,17.13
2022-11-27T04:30:53.207Z,12.18
2022-11-27T04:33:20.045Z,17.02
2022-11-27T04:35:46.590Z,14.97
2022-11-27T04:38:13.240Z,14.75
2022-11-27T04:40:39.794Z,16.88
2022-11-27T04:43:06.294Z,21.33
2022-11-27T04:45:32.788Z,13.30
2022-11-27T04:47:59.313Z,15.10
2022-11-27T04:50:25.887Z,15.82
2022-11-27T04:52:52.358Z,11.77
2022-11-27T04:55:18.868Z,15.88
2022-11-27T04:57:45.464Z,18.17
2022-11-27T05:00:12.725Z,17.47
2022-11-27T05:02:40.027Z,18.95
2022-11-27T05:05:06.967Z,16.52
2022-11-27T05:07:33.508Z,21.80
2022-11-27T05:10:00.140Z,16.63
2022-11-27T05:12:26.705Z,24.08
2022-11-27T05:14:53.219Z,19.70
2022-11-27T05:17:19.906Z,14.17
2022-11-27T05:19:46.608Z,20.65
2022-11-27T05:22:13.191Z,19.65
2022-11-27T05:24:39.949Z,16.20
2022-11-27T05:27:06.767Z,17.98
2022-11-27T05:29:33.341Z,17.15
2022-11-27T05:31:59.882Z,13.02
2022-11-27T05:34:26.514Z,17.95
2022-11-27T05:36:53.169Z,17.25
2022-11-27T05:39:19.676Z,13.35
2022-11-27T05:41:46.136Z,16.73
2022-11-27T05:44:14.926Z,17.83
2022-11-27T05:46:43.624Z,14.35
2022-11-27T05:49:15.049Z,12.13
2022-11-27T05:51:46.345Z,15.63
2022-11-27T05:54:17.141Z,17.52
2022-11-27T05:56:43.661Z,21.38
2022-11-27T05:59:10.898Z,16.23
2022-11-27T06:01:37.549Z,17.33
2022-11-27T06:04:04.303Z,15.32
2022-11-27T06:06:30.966Z,17.87
2022-11-27T06:08:57.530Z,19.73
2022-11-27T06:11:24.146Z,15.20
2022-11-27T06:13:50.815Z,15.57
2022-11-27T06:16:20.628Z,19.40
2022-11-27T06:18:52.488Z,16.48
2022-11-27T06:21:20.390Z,16.27
2022-11-27T06:23:47.064Z,19.92
2022-11-27T06:26:19.962Z,14.85
2022-11-27T06:28:47.760Z,17.52
2022-11-27T06:31:18.245Z,17.60
2022-11-27T06:33:46.537Z,16.67
2022-11-27T06:36:13.187Z,21.35
2022-11-27T06:38:39.829Z,15.70
2022-11-27T06:41:15.597Z,16.80
2022-11-27T06:43:42.430Z,16.05
2022-11-27T06:46:14.038Z,16.08
2022-11-27T06:48:41.256Z,19.60
2022-11-27T06:51:10.305Z,16.60
2022-11-27T06:53:37.960Z,18.73
2022-11-27T06:56:06.838Z,18.20
2022-11-27T06:58:33.318Z,19.48
2022-11-27T07:01:01.776Z,16.63
2022-11-27T07:03:28.768Z,20.70
2022-11-27T07:05:55.386Z,17.55
2022-11-27T07:08:22.473Z,17.15
2022-11-27T07:10:49.096Z,17.25
2022-11-27T07:13:15.572Z,15.85
2022-11-27T07:15:42.585Z,14.85
2022-11-27T07:18:11.733Z,17.42
2022-11-27T07:20:38.259Z,18.37
2022-11-27T07:23:04.786Z,18.38
2022-11-27T07:25:31.345Z,13.50
2022-11-27T07:27:57.883Z,20.17
2022-11-27T07:30:24.516Z,17.52
2022-11-27T07:32:51.038Z,18.08
2022-11-27T07:35:17.896Z,17.30
2022-11-27T07:37:44.505Z,17.42
2022-11-27T07:40:11.196Z,15.77
2022-11-27T07:42:39.052Z,15.73
2022-11-27T07:45:07.948Z,15.00
2022-11-27T07:47:34.518Z,12.02
2022-11-27T07:50:01.243Z,15.68
2022-11-27T07:52:27.875Z,15.50
2022-11-27T07:54:54.461Z,11.90
2022-11-27T07:57:21.220Z,16.58
2022-11-27T07:59:48.057Z,13.70
2022-11-27T08:02:14.803Z,13.60
2022-11-27T08:04:41.716Z,13.52
2022-11-27T08:07:08.500Z,14.55
2022-11-27T08:09:35.255Z,13.27
2022-11-27T08:12:01.802Z,11.37
2022-11-27T08:14:28.281Z,11.18
2022-11-27T08:16:54.922Z,11.77
2022-11-27T08:19:21.893Z,9.48
2022-11-27T08:21:48.429Z,14.40
2022-11-27T08:24:14.912Z,10.15
2022-11-27T08:26:41.707Z,10.88
2022-11-27T08:29:11.729Z,10.97
2022-11-27T08:31:38.615Z,10.95
2022-11-27T08:34:05.273Z,8.27
2022-11-27T08:36:31.747Z,6.70
2022-11-27T08:38:58.276Z,8.40
2022-11-27T08:41:24.764Z,8.82
2022-11-27T08:43:51.374Z,8.77
2022-11-27T08:46:17.939Z,8.88
2022-11-27T08:48:44.588Z,10.50
2022-11-27T08:51:13.477Z,7.47
2022-11-27T08:53:40.269Z,7.25
2022-11-27T08:56:17.420Z,7.32
2022-11-27T08:58:44.916Z,8.52
2022-11-27T09:01:15.458Z,9.50
2022-11-27T09:03:42.053Z,7.97
2022-11-27T09:06:10.503Z,11.45
2022-11-27T09:08:40.796Z,10.70
2022-11-27T09:11:08.769Z,11.05
2022-11-27T09:13:36.976Z,11.73
2022-11-27T09:16:05.470Z,10.68
2022-11-27T09:18:32.739Z,9.05
2022-11-27T09:21:05.888Z,8.35
2022-11-27T09:23:32.788Z,7.28
2022-11-27T09:26:04.086Z,6.70
2022-11-27T09:28:32.058Z,9.05
2022-11-27T09:31:00.702Z,9.05
2022-11-27T09:33:29.692Z,11.07
2022-11-27T09:35:57.001Z,6.65
2022-11-27T09:38:26.606Z,6.27
2022-11-27T09:41:02.990Z,5.47
2022-11-27T09:43:36.782Z,8.35
2022-11-27T09:46:09.125Z,9.10
2022-11-27T09:48:41.512Z,6.90
2022-11-27T09:51:25.245Z,7.13
2022-11-27T09:54:04.426Z,24.98
2022-11-27T09:56:34.457Z,6.82
2022-11-27T09:59:02.199Z,8.77
2022-11-27T10:01:38.491Z,7.75
2022-11-27T10:04:18.550Z,6.33
2022-11-27T10:07:14.654Z,9.23
2022-11-27T10:10:14.958Z,8.55
2022-11-27T10:12:41.457Z,6.18
2022-11-27T10:15:25.175Z,7.83
2022-11-27T10:18:09.113Z,8.65
2022-11-27T10:21:03.297Z,9.43
2022-11-27T10:23:32.676Z,7.35
2022-11-27T10:26:04.070Z,8.40
2022-11-27T10:28:38.585Z,6.47
2022-11-27T10:31:08.071Z,5.45
2022-11-27T10:33:42.351Z,5.97
2022-11-27T10:36:49.000Z,8.20
2022-11-27T10:39:21.996Z,6.10
2022-11-27T10:42:08.778Z,6.50
2022-11-27T10:44:41.479Z,7.50
2022-11-27T10:47:12.076Z,6.15
2022-11-27T10:49:42.770Z,5.70
2022-11-27T10:52:13.979Z,4.70
2022-11-27T10:54:41.349Z,4.60
2022-11-27T10:57:50.044Z,4.85
2022-11-27T11:00:24.010Z,4.70
2022-11-27T11:03:03.696Z,6.13
2022-11-27T11:05:45.623Z,6.93
2022-11-27T11:08:19.889Z,5.47
2022-11-27T11:11:01.796Z,5.90
2022-11-27T11:13:30.658Z,7.43
2022-11-27T11:16:33.319Z,7.10
2022-11-27T11:19:02.499Z,7.70
2022-11-27T11:21:32.353Z,10.10
2022-11-27T11:24:13.988Z,8.98
2022-11-27T11:26:46.257Z,10.07
2022-11-27T11:29:34.651Z,5.70
2022-11-27T11:32:14.018Z,4.87
2022-11-27T11:34:46.704Z,6.88
2022-11-27T11:37:34.508Z,7.60
2022-11-27T11:40:01.059Z,7.13
2022-11-27T11:42:33.281Z,4.85
2022-11-27T11:45:02.905Z,5.40
2022-11-27T11:47:29.955Z,6.05
2022-11-27T11:49:57.366Z,5.82
2022-11-27T11:52:30.107Z,6.00
2022-11-27T11:55:11.847Z,5.93
2022-11-27T11:58:12.905Z,5.93
2022-11-27T12:01:19.412Z,4.90
2022-11-27T12:03:59.233Z,4.43
2022-11-27T12:06:44.190Z,5.28
2022-11-27T12:09:27.060Z,5.13
2022-11-27T12:11:59.279Z,7.80
2022-11-27T12:14:41.301Z,5.55
2022-11-27T12:17:46.548Z,5.00
2022-11-27T12:20:15.178Z,3.33
2022-11-27T12:22:50.955Z,6.03
2022-11-27T12:25:51.407Z,3.60
2022-11-27T12:28:46.633Z,6.07
2022-11-27T12:31:41.351Z,3.90
2022-11-27T12:34:20.709Z,5.32
2022-11-27T12:36:58.637Z,3.40
2022-11-27T12:39:47.214Z,4.15
2022-11-27T12:42:27.761Z,4.18
2022-11-27T12:45:06.224Z,4.65
2022-11-27T12:47:52.021Z,5.28
2022-11-27T12:50:27.346Z,4.50
2022-11-27T12:53:15.409Z,9.20
2022-11-27T12:56:01.027Z,6.63
2022-11-27T12:58:38.828Z,4.38
2022-11-27T13:01:33.232Z,4.45
2022-11-27T13:04:20.891Z,4.00
2022-11-27T13:07:14.783Z,4.22
2022-11-27T13:09:56.161Z,5.72
2022-11-27T13:12:29.444Z,3.45
2022-11-27T13:15:02.544Z,5.57
2022-11-27T13:17:36.988Z,3.63
2022-11-27T13:20:05.838Z,4.25
2022-11-27T13:22:36.064Z,3.30
2022-11-27T13:25:03.879Z,7.32
2022-11-27T13:27:34.585Z,2.63
2022-11-27T13:30:09.196Z,2.63
2022-11-27T13:32:36.128Z,5.03
2022-11-27T13:35:06.779Z,4.45
2022-11-27T13:37:40.834Z,6.20
2022-11-27T13:40:22.135Z,2.22
2022-11-27T13:42:55.058Z,3.50
2022-11-27T13:45:21.641Z,4.40
2022-11-27T13:47:50.395Z,7.07
2022-11-27T13:50:21.039Z,5.47
2022-11-27T13:52:57.040Z,2.67
2022-11-27T13:55:29.544Z,4.43
2022-11-27T13:57:58.006Z,12.50
2022-11-27T14:00:42.812Z,5.53
2022-11-27T14:03:23.336Z,4.28
2022-11-27T14:05:49.947Z,3.03
2022-11-27T14:08:25.457Z,2.40
2022-11-27T14:10:57.702Z,3.67
2022-11-27T14:13:34.193Z,3.47
2022-11-27T14:16:02.281Z,3.53
2022-11-27T14:18:30.894Z,3.13
2022-11-27T14:21:03.043Z,4.37
2022-11-27T14:23:35.459Z,3.13
2022-11-27T14:26:15.245Z,3.58
2022-11-27T14:28:45.243Z,3.13
2022-11-27T14:31:29.995Z,3.08
2022-11-27T14:34:14.897Z,1.70
2022-11-27T14:36:42.727Z,2.45
2022-11-27T14:39:21.102Z,6.72
2022-11-27T14:41:56.399Z,2.20
2022-11-27T14:44:23.058Z,3.07
2022-11-27T14:46:51.247Z,5.20
2022-11-27T14:49:20.161Z,3.92
2022-11-27T14:51:47.712Z,5.40
2022-11-27T14:54:34.217Z,4.10
2022-11-27T14:57:01.295Z,4.60
2022-11-27T14:59:27.879Z,7.18
2022-11-27T15:02:17.231Z,4.72
2022-11-27T15:04:46.236Z,4.47
2022-11-27T15:07:21.635Z,4.50
2022-11-27T15:09:51.521Z,4.00
2022-11-27T15:12:23.726Z,4.60
2022-11-27T15:15:09.119Z,6.05
2022-11-27T15:17:38.665Z,5.55
2022-11-27T15:20:34.908Z,3.20
2022-11-27T15:23:02.421Z,7.83
2022-11-27T15:25:34.910Z,8.20
2022-11-27T15:28:01.429Z,4.47
2022-11-27T15:30:28.359Z,4.93
2022-11-27T15:33:06.383Z,4.85
2022-11-27T15:35:35.263Z,4.37
2022-11-27T15:38:09.824Z,5.97
2022-11-27T15:40:59.115Z,5.00
2022-11-27T15:43:26.142Z,7.22
2022-11-27T15:45:52.886Z,4.97
2022-11-27T15:48:21.060Z,5.60
2022-11-27T15:50:51.586Z,3.65
2022-11-27T15:53:18.824Z,4.85
2022-11-27T15:55:45.456Z,6.18
2022-11-27T15:58:12.003Z,6.67
2022-11-27T16:00:39.748Z,5.60
2022-11-27T16:03:06.410Z,7.88
2022-11-27T16:05:32.916Z,5.75
2022-11-27T16:07:59.510Z,6.95
2022-11-27T16:10:26.214Z,7.60
2022-11-27T16:12:55.231Z,5.25
2022-11-27T16:15:23.505Z,7.75
2022-11-27T16:17:50.877Z,5.72
2022-11-27T16:20:17.457Z,8.30
2022-11-27T16:22:43.973Z,7.88
2022-11-27T16:25:10.518Z,8.38
2022-11-27T16:27:37.192Z,9.45
2022-11-27T16:30:04.384Z,9.15
2022-11-27T16:32:31.020Z,8.05
2022-11-27T16:34:57.494Z,8.25
2022-11-27T16:37:24.181Z,9.23
2022-11-27T16:39:50.724Z,3.38
2022-11-27T16:42:21.196Z,9.85
2022-11-27T16:44:47.909Z,8.18
2022-11-27T16:47:15.618Z,9.63
2022-11-27T16:49:42.756Z,7.13
2022-11-27T16:52:11.882Z,6.40
2022-11-27T16:54:38.591Z,7.70
2022-11-27T16:57:05.240Z,9.57
2022-11-27T16:59:31.912Z,9.13
2022-11-27T17:01:58.469Z,9.80
2022-11-27T17:04:25.014Z,8.55
2022-11-27T17:06:51.558Z,5.20
2022-11-27T17:09:18.213Z,7.65
2022-11-27T17:11:48.587Z,11.00
2022-11-27T17:14:16.254Z,9.48
2022-11-27T17:16:43.319Z,7.55
2022-11-27T17:19:13.072Z,8.13
2022-11-27T17:21:40.203Z,9.47
2022-11-27T17:24:15.114Z,7.25
2022-11-27T17:26:43.485Z,9.00
2022-11-27T17:29:11.639Z,8.93
2022-11-27T17:31:38.820Z,10.27
2022-11-27T17:34:05.833Z,7.00
2022-11-27T17:36:36.897Z,6.93
2022-11-27T17:39:06.058Z,8.55
2022-11-27T17:41:33.272Z,8.80
2022-11-27T17:44:00.405Z,7.75
2022-11-27T17:46:28.764Z,7.35
2022-11-27T17:48:58.893Z,8.00
2022-11-27T17:51:26.277Z,7.93
2022-11-27T17:53:52.961Z,8.18
2022-11-27T17:56:20.571Z,9.02
2022-11-27T17:58:47.475Z,8.35
2022-11-27T18:01:17.530Z,8.47
2022-11-27T18:03:46.050Z,8.35
2022-11-27T18:06:13.611Z,7.68
2022-11-27T18:08:40.563Z,8.25
2022-11-27T18:11:13.171Z,9.88
2022-11-27T18:13:40.179Z,9.27
2022-11-27T18:16:11.980Z,7.68
2022-11-27T18:18:39.236Z,9.23
2022-11-27T18:21:18.207Z,8.05
2022-11-27T18:24:20.590Z,5.18
2022-11-27T18:27:00.467Z,7.53
2022-11-27T18:29:22.059Z,6.45
2022-11-27T18:31:49.953Z,9.47
2022-11-27T18:34:16.565Z,8.38
2022-11-27T18:36:43.263Z,6.50
2022-11-27T18:39:09.799Z,8.60
2022-11-27T18:41:37.174Z,8.02
2022-11-27T18:44:04.375Z,10.18
2022-11-27T18:46:31.183Z,8.13
2022-11-27T18:48:57.852Z,6.68
2022-11-27T18:51:26.514Z,10.88
2022-11-27T18:53:53.352Z,7.07
2022-11-27T18:56:22.120Z,8.45
2022-11-27T18:58:48.972Z,8.07
2022-11-27T19:01:19.134Z,9.70
2022-11-27T19:03:49.069Z,6.82
2022-11-27T19:06:17.930Z,8.68
2022-11-27T19:08:45.182Z,8.05
2022-11-27T19:11:14.433Z,8.82
2022-11-27T19:13:42.392Z,7.38
2022-11-27T19:16:12.143Z,5.38
2022-11-27T19:18:38.910Z,8.30
2022-11-27T19:21:26.049Z,7.60
2022-11-27T19:23:53.434Z,9.00
2022-11-27T19:26:25.321Z,7.68
2022-11-27T19:28:53.969Z,8.23
2022-11-27T19:31:21.642Z,9.13
2022-11-27T19:33:53.218Z,7.63
2022-11-27T19:36:20.196Z,8.05
2022-11-27T19:38:47.133Z,9.18
2022-11-27T19:41:17.967Z,10.52
2022-11-27T19:43:45.300Z,10.17
2022-11-27T19:46:23.300Z,9.32
2022-11-27T19:48:50.698Z,10.48
2022-11-27T19:51:17.248Z,9.48
2022-11-27T19:53:43.886Z,7.32
2022-11-27T19:56:10.684Z,9.03
2022-11-27T19:58:37.389Z,10.85
2022-11-27T20:01:17.305Z,9.88
2022-11-27T20:03:45.088Z,11.32
2022-11-27T20:06:15.488Z,10.30
2022-11-27T20:08:43.325Z,9.63
2022-11-27T20:11:12.385Z,9.30
2022-11-27T20:13:39.330Z,5.15
2022-11-27T20:16:18.050Z,10.38
2022-11-27T20:18:45.139Z,10.25
2022-11-27T20:21:14.649Z,7.22
2022-11-27T20:23:42.175Z,10.40
2022-11-27T20:26:12.318Z,9.50
2022-11-27T20:28:41.183Z,10.95
2022-11-27T20:31:12.967Z,9.77
2022-11-27T20:33:39.552Z,8.00
2022-11-27T20:36:17.288Z,7.47
2022-11-27T20:38:43.943Z,7.18
2022-11-27T20:41:13.129Z,9.13
2022-11-27T20:43:40.312Z,10.10
2022-11-27T20:46:10.368Z,9.00
2022-11-27T20:48:38.721Z,9.75
2022-11-27T20:51:08.179Z,9.63
2022-11-27T20:53:34.995Z,10.55
2022-11-27T20:56:07.121Z,10.40
2022-11-27T20:58:38.331Z,9.88
2022-11-27T21:01:18.873Z,10.95
2022-11-27T21:03:46.845Z,8.68
2022-11-27T21:06:14.675Z,8.20
2022-11-27T21:08:41.273Z,8.52
2022-11-27T21:11:12.418Z,6.22
2022-11-27T21:13:39.854Z,9.75
2022-11-27T21:16:10.915Z,9.95
2022-11-27T21:18:38.421Z,9.55
2022-11-27T21:21:11.281Z,8.98
2022-11-27T21:23:41.736Z,6.53
2022-11-27T21:26:09.030Z,8.37
2022-11-27T21:28:35.666Z,7.55
2022-11-27T21:31:11.219Z,8.88
2022-11-27T21:33:37.956Z,10.57
2022-11-27T21:36:05.375Z,9.52
2022-11-27T21:38:32.016Z,11.02
2022-11-27T21:41:00.626Z,10.10
2022-11-27T21:43:27.679Z,7.68
2022-11-27T21:45:54.579Z,9.97
2022-11-27T21:48:21.770Z,9.65
2022-11-27T21:50:48.429Z,9.88
2022-11-27T21:53:15.076Z,9.85
2022-11-27T21:55:42.640Z,8.27
2022-11-27T21:58:09.178Z,7.95
2022-11-27T22:00:36.843Z,8.45
2022-11-27T22:03:03.450Z,8.20
2022-11-27T22:05:30.057Z,9.38
2022-11-27T22:07:56.709Z,11.53
2022-11-27T22:10:23.408Z,6.88
2022-11-27T22:12:50.013Z,8.38
2022-11-27T22:15:16.700Z,9.27
2022-11-27T22:17:43.311Z,8.77
2022-11-27T22:20:10.182Z,8.35
2022-11-27T22:22:36.710Z,10.70
2022-11-27T22:25:04.569Z,10.23
2022-11-27T22:27:31.199Z,9.27
2022-11-27T22:29:57.711Z,10.48
2022-11-27T22:32:24.245Z,10.50
2022-11-27T22:34:51.346Z,10.33
2022-11-27T22:37:17.836Z,9.93
2022-11-27T22:39:44.507Z,12.20
2022-11-27T22:42:12.162Z,11.13
2022-11-27T22:44:39.226Z,8.35
2022-11-27T22:47:05.919Z,9.35
2022-11-27T22:49:32.394Z,8.63
2022-11-27T22:51:58.888Z,10.60
2022-11-27T22:54:25.457Z,10.67
2022-11-27T22:56:51.915Z,8.80
2022-11-27T22:59:34.676Z,10.45
2022-11-27T23:02:02.965Z,11.35
2022-11-27T23:04:29.700Z,10.93
2022-11-27T23:06:56.331Z,9.45
2022-11-27T23:09:23.132Z,11.52
2022-11-27T23:11:49.883Z,6.45
2022-11-27T23:14:16.722Z,7.63
2022-11-27T23:16:43.665Z,7.20
2022-11-27T23:19:11.077Z,9.63
2022-11-27T23:21:39.007Z,5.57
2022-11-27T23:24:07.919Z,7.60
2022-11-27T23:26:34.460Z,7.45
2022-11-27T23:29:01.092Z,8.93
2022-11-27T23:31:31.092Z,8.23
2022-11-27T23:34:01.228Z,8.67
2022-11-27T23:36:28.584Z,10.38
2022-11-27T23:38:55.089Z,8.38
2022-11-27T23:41:24.366Z,8.10
2022-11-27T23:43:52.369Z,7.43
2022-11-27T23:46:21.121Z,5.23
2022-11-27T23:48:47.801Z,4.80
2022-11-27T23:51:19.947Z,9.30
2022-11-27T23:53:47.320Z,8.00
2022-11-27T23:56:17.981Z,5.23
2022-11-27T23:58:47.378Z,7.20
